createdAt,value
2022-10-05T00:01:20.647Z,57.78
2022-10-05T00:03:49.253Z,57.76
2022-10-05T00:06:17.777Z,57.85
2022-10-05T00:08:46.178Z,57.94
2022-10-05T00:11:15.416Z,58.02
2022-10-05T00:13:44.112Z,57.95
2022-10-05T00:16:12.383Z,57.88
2022-10-05T00:18:40.826Z,57.71
2022-10-05T00:21:36.048Z,57.75
2022-10-05T00:24:10.888Z,57.50
2022-10-05T00:26:39.397Z,57.81
2022-10-05T00:29:23.809Z,57.69
2022-10-05T00:31:52.437Z,57.56
2022-10-05T00:34:20.760Z,57.84
2022-10-05T00:36:49.400Z,57.54
2022-10-05T00:39:18.946Z,57.65
2022-10-05T00:41:59.407Z,57.66
2022-10-05T00:44:59.760Z,57.40
2022-10-05T00:47:32.335Z,57.64
2022-10-05T00:50:28.597Z,57.23
2022-10-05T00:53:12.918Z,57.40
2022-10-05T00:56:02.770Z,57.18
2022-10-05T00:58:46.354Z,57.33
2022-10-05T01:01:26.314Z,57.17
2022-10-05T01:04:08.117Z,56.93
2022-10-05T01:06:44.567Z,56.87
2022-10-05T01:09:43.187Z,56.84
2022-10-05T01:12:30.679Z,56.85
2022-10-05T01:15:09.995Z,56.96
2022-10-05T01:17:50.526Z,56.41
2022-10-05T01:20:21.827Z,56.16
2022-10-05T01:23:08.846Z,56.08
2022-10-05T01:25:56.797Z,56.21
2022-10-05T01:29:15.796Z,55.77
2022-10-05T01:31:57.448Z,55.75
2022-10-05T01:34:45.459Z,55.75
2022-10-05T01:37:38.768Z,55.87
2022-10-05T01:40:08.025Z,55.82
2022-10-05T01:43:01.617Z,55.54
2022-10-05T01:45:43.657Z,55.64
2022-10-05T01:48:23.177Z,55.86
2022-10-05T01:51:04.912Z,55.60
2022-10-05T01:53:38.898Z,55.28
2022-10-05T01:56:23.382Z,55.76
2022-10-05T01:59:08.696Z,55.51
2022-10-05T02:02:15.851Z,55.88
2022-10-05T02:05:02.608Z,55.53
2022-10-05T02:07:37.177Z,55.39
2022-10-05T02:10:27.078Z,55.99
2022-10-05T02:13:02.646Z,55.69
2022-10-05T02:15:41.528Z,55.80
2022-10-05T02:18:18.562Z,55.86
2022-10-05T02:20:48.099Z,55.66
2022-10-05T02:23:22.715Z,55.74
2022-10-05T02:25:52.627Z,56.02
2022-10-05T02:28:48.516Z,55.82
2022-10-05T02:31:25.303Z,56.09
2022-10-05T02:34:21.333Z,55.75
2022-10-05T02:37:20.969Z,55.71
2022-10-05T02:40:20.319Z,55.77
2022-10-05T02:43:02.651Z,56.00
2022-10-05T02:45:43.301Z,55.91
2022-10-05T02:48:45.138Z,55.73
2022-10-05T02:51:24.359Z,55.62
2022-10-05T02:54:23.614Z,55.80
2022-10-05T02:57:11.870Z,55.88
2022-10-05T03:00:10.727Z,55.71
2022-10-05T03:02:50.118Z,55.44
2022-10-05T03:05:31.147Z,55.41
2022-10-05T03:08:06.237Z,55.43
2022-10-05T03:10:46.748Z,55.18
2022-10-05T03:13:25.043Z,55.36
2022-10-05T03:16:37.427Z,55.11
2022-10-05T03:19:33.080Z,54.93
2022-10-05T03:22:10.391Z,55.17
2022-10-05T03:24:47.149Z,54.95
2022-10-05T03:27:16.130Z,55.10
2022-10-05T03:29:55.301Z,55.12
2022-10-05T03:32:46.420Z,55.04
2022-10-05T03:35:17.809Z,55.04
2022-10-05T03:37:56.376Z,54.88
2022-10-05T03:41:00.747Z,55.00
2022-10-05T03:43:47.304Z,54.95
2022-10-05T03:46:58.189Z,55.06
2022-10-05T03:49:48.478Z,55.18
2022-10-05T03:52:44.818Z,55.05
2022-10-05T03:55:42.499Z,55.18
2022-10-05T03:58:20.888Z,55.36
2022-10-05T04:00:54.578Z,55.30
2022-10-05T04:03:39.499Z,55.48
2022-10-05T04:06:12.043Z,55.61
2022-10-05T04:09:14.929Z,55.68
2022-10-05T04:11:55.620Z,55.62
2022-10-05T04:14:29.299Z,55.91
2022-10-05T04:17:12.247Z,55.75
2022-10-05T04:19:45.011Z,55.87
2022-10-05T04:22:29.730Z,55.67
2022-10-05T04:25:16.776Z,55.84
2022-10-05T04:27:59.844Z,55.73
2022-10-05T04:30:31.525Z,55.92
2022-10-05T04:33:01.263Z,56.00
2022-10-05T04:36:22.730Z,55.92
2022-10-05T04:39:00.087Z,56.12
2022-10-05T04:41:49.777Z,56.19
2022-10-05T04:44:44.209Z,56.19
2022-10-05T04:47:23.272Z,56.02
2022-10-05T04:50:09.889Z,56.22
2022-10-05T04:52:55.780Z,55.87
2022-10-05T04:55:37.830Z,56.29
2022-10-05T04:58:37.729Z,56.07
2022-10-05T05:01:24.189Z,56.14
2022-10-05T05:04:15.675Z,56.39
2022-10-05T05:06:54.368Z,56.31
2022-10-05T05:10:00.279Z,56.24
2022-10-05T05:12:53.369Z,56.19
2022-10-05T05:15:26.656Z,56.39
2022-10-05T05:18:38.830Z,56.63
2022-10-05T05:21:48.318Z,56.73
2022-10-05T05:24:21.699Z,56.84
2022-10-05T05:27:08.743Z,56.69
2022-10-05T05:30:04.049Z,56.74
2022-10-05T05:33:11.880Z,56.70
2022-10-05T05:35:53.550Z,56.76
2022-10-05T05:38:47.293Z,56.93
2022-10-05T05:41:38.583Z,56.87
2022-10-05T05:44:15.412Z,56.63
2022-10-05T05:47:05.357Z,56.47
2022-10-05T05:50:11.104Z,56.69
2022-10-05T05:52:47.768Z,56.48
2022-10-05T05:55:29.724Z,56.35
2022-10-05T05:58:06.463Z,56.11
2022-10-05T06:01:32.823Z,56.35
2022-10-05T06:04:25.560Z,56.21
2022-10-05T06:06:56.389Z,56.10
2022-10-05T06:09:35.740Z,56.09
2022-10-05T06:12:26.188Z,56.28
2022-10-05T06:14:59.218Z,56.10
2022-10-05T06:17:43.048Z,56.20
2022-10-05T06:20:44.301Z,56.01
2022-10-05T06:23:39.506Z,55.88
2022-10-05T06:26:24.710Z,56.12
2022-10-05T06:29:04.322Z,56.04
2022-10-05T06:32:04.836Z,56.17
2022-10-05T06:34:54.858Z,56.51
2022-10-05T06:37:34.850Z,56.59
2022-10-05T06:40:08.656Z,56.35
2022-10-05T06:43:02.212Z,56.34
2022-10-05T06:46:07.542Z,56.40
2022-10-05T06:49:07.784Z,56.13
2022-10-05T06:52:26.341Z,56.25
2022-10-05T06:55:24.075Z,56.38
2022-10-05T06:58:02.532Z,56.45
2022-10-05T07:00:56.517Z,56.33
2022-10-05T07:03:47.854Z,56.29
2022-10-05T07:06:36.710Z,56.43
2022-10-05T07:09:31.789Z,56.08
2022-10-05T07:12:10.539Z,55.94
2022-10-05T07:15:19.213Z,56.27
2022-10-05T07:18:13.763Z,56.20
2022-10-05T07:21:09.219Z,56.37
2022-10-05T07:24:22.837Z,56.41
2022-10-05T07:27:05.098Z,56.35
2022-10-05T07:29:42.041Z,56.66
2022-10-05T07:32:29.764Z,56.19
2022-10-05T07:34:58.060Z,56.65
2022-10-05T07:38:00.120Z,57.52
2022-10-05T07:41:02.618Z,57.71
2022-10-05T07:44:03.158Z,57.92
2022-10-05T07:46:40.860Z,57.77
2022-10-05T07:49:22.633Z,57.37
2022-10-05T07:52:07.563Z,57.33
2022-10-05T07:54:54.319Z,57.35
2022-10-05T07:57:25.683Z,57.20
2022-10-05T08:00:02.812Z,56.77
2022-10-05T08:02:53.006Z,56.58
2022-10-05T08:05:29.214Z,56.13
2022-10-05T08:08:09.003Z,55.67
2022-10-05T08:10:49.780Z,55.67
2022-10-05T08:13:31.768Z,55.26
2022-10-05T08:16:05.705Z,55.00
2022-10-05T08:19:23.700Z,55.03
2022-10-05T08:22:05.723Z,54.62
2022-10-05T08:25:06.669Z,54.78
2022-10-05T08:27:55.504Z,54.69
2022-10-05T08:30:24.121Z,54.18
2022-10-05T08:33:02.221Z,54.48
2022-10-05T08:35:36.702Z,54.30
2022-10-05T08:38:12.078Z,54.56
2022-10-05T08:41:15.880Z,54.54
2022-10-05T08:44:24.889Z,54.38
2022-10-05T08:47:02.570Z,54.31
2022-10-05T08:49:49.934Z,54.79
2022-10-05T08:52:39.129Z,55.70
2022-10-05T08:55:10.390Z,57.55
2022-10-05T08:57:46.902Z,57.49
2022-10-05T09:00:28.462Z,56.95
2022-10-05T09:03:24.024Z,56.67
2022-10-05T09:06:17.611Z,56.89
2022-10-05T09:09:03.551Z,56.65
2022-10-05T09:11:36.959Z,56.25
2022-10-05T09:14:23.758Z,55.79
2022-10-05T09:17:13.819Z,56.02
2022-10-05T09:19:51.309Z,55.93
2022-10-05T09:22:38.150Z,56.34
2022-10-05T09:25:22.955Z,55.94
2022-10-05T09:28:03.637Z,55.96
2022-10-05T09:30:56.516Z,55.95
2022-10-05T09:34:00.231Z,56.01
2022-10-05T09:36:53.001Z,55.91
2022-10-05T09:39:32.143Z,55.70
2022-10-05T09:42:24.524Z,55.98
2022-10-05T09:45:42.242Z,56.14
2022-10-05T09:48:37.963Z,55.75
2022-10-05T09:51:33.805Z,56.68
2022-10-05T09:54:47.035Z,56.62
2022-10-05T09:57:42.864Z,56.63
2022-10-05T10:00:45.831Z,56.72
2022-10-05T10:03:39.604Z,56.44
2022-10-05T10:06:20.168Z,56.18
2022-10-05T10:09:06.884Z,56.27
2022-10-05T10:11:54.804Z,55.90
2022-10-05T10:14:50.956Z,55.74
2022-10-05T10:17:43.976Z,55.62
2022-10-05T10:20:35.115Z,55.79
2022-10-05T10:23:22.963Z,55.38
2022-10-05T10:26:06.863Z,55.43
2022-10-05T10:28:45.374Z,55.66
2022-10-05T10:31:38.692Z,55.26
2022-10-05T10:34:53.324Z,55.15
2022-10-05T10:37:59.243Z,55.37
2022-10-05T10:40:35.454Z,55.56
2022-10-05T10:43:22.525Z,55.55
2022-10-05T10:46:09.968Z,56.11
2022-10-05T10:49:00.304Z,55.80
2022-10-05T10:51:47.683Z,55.71
2022-10-05T10:54:19.038Z,55.57
2022-10-05T10:57:11.642Z,55.54
2022-10-05T11:00:06.805Z,55.25
2022-10-05T11:03:20.235Z,55.08
2022-10-05T11:06:05.547Z,54.69
2022-10-05T11:08:43.094Z,54.87
2022-10-05T11:11:43.013Z,54.82
2022-10-05T11:14:17.275Z,54.88
2022-10-05T11:17:07.963Z,54.80
2022-10-05T11:20:03.052Z,54.79
2022-10-05T11:23:00.454Z,55.07
2022-10-05T11:26:06.593Z,54.97
2022-10-05T11:29:09.749Z,54.66
2022-10-05T11:32:19.833Z,54.75
2022-10-05T11:35:11.060Z,54.87
2022-10-05T11:38:05.998Z,54.45
2022-10-05T11:40:34.675Z,54.94
2022-10-05T11:43:03.121Z,54.73
2022-10-05T11:45:48.287Z,54.53
2022-10-05T11:48:31.392Z,54.85
2022-10-05T11:51:12.520Z,55.22
2022-10-05T11:53:42.764Z,54.90
2022-10-05T11:56:41.447Z,54.96
2022-10-05T11:59:19.566Z,55.39
2022-10-05T12:02:24.821Z,55.28
2022-10-05T12:05:07.400Z,55.10
2022-10-05T12:08:01.102Z,55.40
2022-10-05T12:10:43.191Z,55.38
2022-10-05T12:13:33.970Z,55.38
2022-10-05T12:16:08.550Z,55.50
2022-10-05T12:18:39.620Z,55.38
2022-10-05T12:21:18.873Z,55.27
2022-10-05T12:23:57.509Z,55.33
2022-10-05T12:26:31.101Z,55.30
2022-10-05T12:29:17.506Z,55.36
2022-10-05T12:32:03.564Z,55.53
2022-10-05T12:34:49.122Z,55.46
2022-10-05T12:37:39.905Z,55.39
2022-10-05T12:40:28.963Z,55.50
2022-10-05T12:43:05.640Z,55.43
2022-10-05T12:45:50.205Z,55.26
2022-10-05T12:48:37.619Z,55.24
2022-10-05T12:51:32.426Z,55.42
2022-10-05T12:54:06.874Z,55.29
2022-10-05T12:56:46.763Z,55.13
2022-10-05T12:59:40.682Z,55.12
2022-10-05T13:02:43.435Z,55.15
2022-10-05T13:05:15.922Z,55.21
2022-10-05T13:08:08.415Z,55.10
2022-10-05T13:10:41.335Z,55.34
2022-10-05T13:13:25.383Z,55.03
2022-10-05T13:16:05.035Z,55.15
2022-10-05T13:18:54.921Z,55.34
2022-10-05T13:22:00.861Z,55.29
2022-10-05T13:24:29.421Z,55.11
2022-10-05T13:27:14.721Z,55.21
2022-10-05T13:29:54.190Z,54.91
2022-10-05T13:32:36.386Z,54.68
2022-10-05T13:35:40.731Z,55.16
2022-10-05T13:38:27.940Z,55.09
2022-10-05T13:41:17.846Z,54.84
2022-10-05T13:44:23.204Z,54.96
2022-10-05T13:47:06.680Z,55.23
2022-10-05T13:49:39.526Z,55.24
2022-10-05T13:52:26.742Z,54.97
2022-10-05T13:55:05.364Z,55.23
2022-10-05T13:57:53.860Z,55.32
2022-10-05T14:00:27.084Z,55.63
2022-10-05T14:02:57.889Z,55.63
2022-10-05T14:05:31.421Z,55.32
2022-10-05T14:08:02.870Z,55.68
2022-10-05T14:10:40.140Z,55.76
2022-10-05T14:13:56.482Z,55.56
2022-10-05T14:16:26.488Z,54.98
2022-10-05T14:19:11.661Z,55.42
2022-10-05T14:22:01.406Z,55.44
2022-10-05T14:24:44.879Z,55.21
2022-10-05T14:27:29.910Z,55.26
2022-10-05T14:30:13.552Z,55.06
2022-10-05T14:32:51.619Z,55.22
2022-10-05T14:35:22.391Z,55.58
2022-10-05T14:37:54.336Z,55.50
2022-10-05T14:40:33.397Z,55.50
2022-10-05T14:43:14.360Z,55.58
2022-10-05T14:46:14.566Z,55.35
2022-10-05T14:48:45.741Z,55.29
2022-10-05T14:51:32.280Z,55.53
2022-10-05T14:54:04.546Z,55.42
2022-10-05T14:56:36.852Z,55.31
2022-10-05T14:59:34.435Z,54.95
2022-10-05T15:02:40.419Z,55.02
2022-10-05T15:05:19.701Z,54.92
2022-10-05T15:07:49.900Z,54.96
2022-10-05T15:10:37.735Z,55.10
2022-10-05T15:13:14.207Z,55.09
2022-10-05T15:15:54.934Z,55.31
2022-10-05T15:18:41.796Z,55.45
2022-10-05T15:21:36.426Z,55.56
2022-10-05T15:24:13.485Z,55.37
2022-10-05T15:26:42.150Z,55.37
2022-10-05T15:29:36.357Z,55.64
2022-10-05T15:32:32.936Z,54.98
2022-10-05T15:35:20.812Z,55.43
2022-10-05T15:38:00.047Z,55.15
2022-10-05T15:40:38.365Z,55.41
2022-10-05T15:43:14.541Z,55.55
2022-10-05T15:46:01.385Z,55.41
2022-10-05T15:48:59.415Z,55.30
2022-10-05T15:51:37.700Z,55.61
2022-10-05T15:54:44.520Z,55.43
2022-10-05T15:57:37.255Z,55.21
2022-10-05T16:00:14.021Z,55.34
2022-10-05T16:03:14.203Z,55.88
2022-10-05T16:06:06.825Z,55.94
2022-10-05T16:08:56.490Z,55.88
2022-10-05T16:11:34.275Z,56.23
2022-10-05T16:14:02.738Z,55.63
2022-10-05T16:16:53.780Z,55.31
2022-10-05T16:19:48.111Z,55.76
2022-10-05T16:22:26.570Z,55.91
2022-10-05T16:25:08.766Z,56.21
2022-10-05T16:28:06.062Z,56.29
2022-10-05T16:30:45.146Z,56.30
2022-10-05T16:33:54.914Z,56.33
2022-10-05T16:37:00.347Z,56.34
2022-10-05T16:39:58.483Z,56.41
2022-10-05T16:42:52.859Z,55.93
2022-10-05T16:45:30.381Z,56.35
2022-10-05T16:48:06.175Z,56.48
2022-10-05T16:50:49.169Z,56.42
2022-10-05T16:53:29.445Z,56.43
2022-10-05T16:56:03.466Z,56.34
2022-10-05T16:58:49.155Z,56.94
2022-10-05T17:01:43.946Z,56.79
2022-10-05T17:04:32.046Z,56.84
2022-10-05T17:07:17.074Z,56.98
2022-10-05T17:10:06.729Z,56.74
2022-10-05T17:12:46.204Z,56.81
2022-10-05T17:15:34.570Z,56.64
2022-10-05T17:18:28.249Z,56.80
2022-10-05T17:21:12.359Z,56.79
2022-10-05T17:24:04.911Z,56.95
2022-10-05T17:26:57.844Z,56.74
2022-10-05T17:29:29.935Z,56.72
2022-10-05T17:32:09.615Z,56.92
2022-10-05T17:34:40.210Z,56.86
2022-10-05T17:37:27.308Z,56.89
2022-10-05T17:39:57.526Z,56.78
2022-10-05T17:42:32.726Z,56.48
2022-10-05T17:45:21.406Z,57.31
2022-10-05T17:48:01.560Z,57.00
2022-10-05T17:50:57.696Z,57.25
2022-10-05T17:54:06.987Z,57.43
2022-10-05T17:56:58.826Z,57.51
2022-10-05T17:59:53.565Z,57.39
2022-10-05T18:02:40.800Z,57.44
2022-10-05T18:05:16.586Z,57.64
2022-10-05T18:07:51.081Z,57.60
2022-10-05T18:10:29.298Z,57.48
2022-10-05T18:13:01.076Z,57.53
2022-10-05T18:15:29.465Z,57.35
2022-10-05T18:18:34.155Z,57.29
2022-10-05T18:21:15.218Z,57.14
2022-10-05T18:23:58.779Z,57.13
2022-10-05T18:26:36.205Z,57.15
2022-10-05T18:29:39.707Z,57.18
2022-10-05T18:32:31.487Z,57.27
2022-10-05T18:35:30.824Z,57.11
2022-10-05T18:38:09.516Z,57.25
2022-10-05T18:40:52.994Z,57.58
2022-10-05T18:43:35.126Z,57.61
2022-10-05T18:46:19.765Z,57.88
2022-10-05T18:48:54.480Z,57.92
2022-10-05T18:51:43.386Z,57.82
2022-10-05T18:54:30.645Z,58.04
2022-10-05T18:57:00.072Z,58.15
2022-10-05T18:59:34.719Z,58.33
2022-10-05T19:02:23.605Z,58.13
2022-10-05T19:04:52.276Z,58.00
2022-10-05T19:07:44.791Z,57.97
2022-10-05T19:10:31.235Z,58.16
2022-10-05T19:13:38.186Z,58.35
2022-10-05T19:16:34.835Z,58.45
2022-10-05T19:19:29.365Z,59.70
2022-10-05T19:22:31.817Z,60.03
2022-10-05T19:25:18.306Z,61.01
2022-10-05T19:28:11.862Z,61.32
2022-10-05T19:31:08.378Z,61.86
2022-10-05T19:33:41.880Z,62.37
2022-10-05T19:36:13.636Z,63.11
2022-10-05T19:38:50.316Z,62.91
2022-10-05T19:41:36.331Z,62.54
2022-10-05T19:44:41.279Z,62.06
2022-10-05T19:47:29.057Z,61.79
2022-10-05T19:49:59.675Z,60.48
2022-10-05T19:52:46.262Z,59.96
2022-10-05T19:55:20.876Z,59.77
2022-10-05T19:57:53.181Z,59.33
2022-10-05T20:00:27.906Z,58.85
2022-10-05T20:03:13.102Z,59.04
2022-10-05T20:05:42.524Z,59.04
2022-10-05T20:08:19.737Z,58.68
2022-10-05T20:11:27.917Z,58.51
2022-10-05T20:14:02.154Z,58.43
2022-10-05T20:17:11.289Z,58.47
2022-10-05T20:20:15.615Z,58.24
2022-10-05T20:22:47.125Z,58.25
2022-10-05T20:25:18.426Z,58.42
2022-10-05T20:27:56.053Z,57.99
2022-10-05T20:30:27.785Z,58.36
2022-10-05T20:32:58.408Z,58.24
2022-10-05T20:35:30.980Z,58.01
2022-10-05T20:38:00.388Z,58.01
2022-10-05T20:40:31.966Z,57.73
2022-10-05T20:43:00.654Z,58.11
2022-10-05T20:45:29.030Z,57.89
2022-10-05T20:47:57.584Z,57.82
2022-10-05T20:50:27.888Z,58.00
2022-10-05T20:52:58.001Z,57.75
2022-10-05T20:55:31.792Z,57.75
2022-10-05T20:58:01.546Z,57.80
2022-10-05T21:00:53.637Z,57.73
2022-10-05T21:03:22.283Z,57.67
2022-10-05T21:05:50.955Z,57.86
2022-10-05T21:08:20.185Z,57.70
2022-10-05T21:10:49.596Z,57.80
2022-10-05T21:13:18.751Z,57.67
2022-10-05T21:15:47.105Z,57.81
2022-10-05T21:18:16.068Z,57.74
2022-10-05T21:20:46.765Z,57.75
2022-10-05T21:23:15.240Z,57.55
2022-10-05T21:25:43.587Z,57.47
2022-10-05T21:28:12.276Z,57.75
2022-10-05T21:30:40.846Z,57.52
2022-10-05T21:33:09.366Z,57.42
2022-10-05T21:35:38.290Z,57.42
2022-10-05T21:38:06.856Z,57.27
2022-10-05T21:40:35.331Z,57.29
2022-10-05T21:43:04.241Z,57.42
2022-10-05T21:45:33.020Z,57.36
2022-10-05T21:48:01.615Z,57.30
2022-10-05T21:50:30.376Z,57.50
2022-10-05T21:53:01.416Z,57.38
2022-10-05T21:55:30.010Z,57.27
2022-10-05T21:57:59.611Z,57.39
2022-10-05T22:00:28.712Z,57.23
2022-10-05T22:02:57.117Z,57.13
2022-10-05T22:05:25.709Z,57.29
2022-10-05T22:07:53.896Z,57.25
2022-10-05T22:10:21.957Z,57.38
2022-10-05T22:12:50.319Z,57.40
2022-10-05T22:15:18.726Z,57.13
2022-10-05T22:17:46.868Z,57.05
2022-10-05T22:20:15.862Z,57.11
2022-10-05T22:22:43.970Z,57.36
2022-10-05T22:25:12.085Z,57.15
2022-10-05T22:27:40.588Z,57.17
2022-10-05T22:30:09.407Z,56.94
2022-10-05T22:32:37.608Z,57.15
2022-10-05T22:35:10.641Z,56.89
2022-10-05T22:37:40.426Z,56.74
2022-10-05T22:40:11.458Z,56.89
2022-10-05T22:42:40.777Z,56.91
2022-10-05T22:45:09.277Z,56.75
2022-10-05T22:47:37.597Z,56.52
2022-10-05T22:50:06.176Z,56.80
2022-10-05T22:52:34.236Z,56.63
2022-10-05T22:55:02.587Z,56.70
2022-10-05T22:57:40.773Z,56.71
2022-10-05T23:00:11.314Z,56.79
2022-10-05T23:02:41.441Z,56.86
2022-10-05T23:05:13.491Z,56.56
2022-10-05T23:07:44.180Z,56.57
2022-10-05T23:10:17.046Z,56.60
2022-10-05T23:12:45.698Z,56.45
2022-10-05T23:15:14.217Z,56.79
2022-10-05T23:17:42.469Z,56.78
2022-10-05T23:20:11.198Z,56.65
2022-10-05T23:22:39.923Z,56.72
2022-10-05T23:25:08.702Z,56.53
2022-10-05T23:27:41.643Z,56.47
2022-10-05T23:30:12.125Z,56.54
2022-10-05T23:32:42.136Z,56.48
2022-10-05T23:35:12.871Z,56.65
2022-10-05T23:37:44.203Z,56.35
2022-10-05T23:40:14.025Z,56.29
2022-10-05T23:42:42.444Z,56.73
2022-10-05T23:45:11.975Z,56.99
2022-10-05T23:47:41.016Z,56.54
2022-10-05T23:50:10.173Z,56.57
2022-10-05T23:52:38.458Z,56.10
2022-10-05T23:55:07.279Z,56.60
2022-10-05T23:57:35.669Z,56.77
